Time;durP1;ratioP1;P1;durP2;ratioP2;P2;SDS_P1;SDS_P2;PMS_P1;PMS_P2;Temp;Humidity;BMP_temperature;BMP_pressure;BME280_temperature;BME280_humidity;BME280_pressure;Samples;Min_cycle;Max_cycle;Signal;HPM_P1;HPM_P2
2022/09/06 00:00:13;;;;;;;4.13;2.13;;;22.00;99.90;;;;;;5016109;28;20093;-70
2022/09/06 00:02:40;;;;;;;6.30;2.13;;;;;;;;;;5027373;28;20051;-71
2022/09/06 00:05:06;;;;;;;4.93;2.33;;;;;;;;;;5035891;28;20029;-71
2022/09/06 00:07:33;;;;;;;10.85;3.35;;;;;;;;;;5041177;28;20088;-70
2022/09/06 00:09:59;;;;;;;4.53;2.20;;;;;;;;;;5031698;28;20033;-71
2022/09/06 00:12:25;;;;;;;10.10;2.70;;;;;;;;;;5035877;28;20024;-70
2022/09/06 00:14:51;;;;;;;8.02;2.53;;;;;;;;;;5037709;28;20033;-71
2022/09/06 00:17:17;;;;;;;3.75;2.10;;;;;;;;;;5033519;28;20596;-70
2022/09/06 00:19:43;;;;;;;4.10;2.25;;;;;;;;;;5020346;28;20109;-71
2022/09/06 00:22:09;;;;;;;4.47;2.90;;;;;;;;;;5032580;28;20135;-70
2022/09/06 00:24:38;;;;;;;7.32;2.38;;;;;;;;;;5031012;28;20108;-70
2022/09/06 00:27:05;;;;;;;4.72;1.88;;;;;;;;;;5016341;28;20504;-72
2022/09/06 00:29:31;;;;;;;3.58;2.40;;;;;;;;;;5031023;28;20040;-70
2022/09/06 00:31:58;;;;;;;3.35;2.33;;;;;;;;;;5029282;28;20037;-70
2022/09/06 00:34:24;;;;;;;10.98;2.78;;;;;;;;;;5041971;28;20048;-70
2022/09/06 00:36:50;;;;;;;3.95;2.22;;;;;;;;;;5033691;28;20029;-70
2022/09/06 00:39:16;;;;;;;7.78;2.30;;;;;;;;;;5033168;28;20117;-70
2022/09/06 00:41:42;;;;;;;4.68;2.42;;;;;;;;;;5055301;28;20390;-70
2022/09/06 00:44:08;;;;;;;3.70;2.35;;;;;;;;;;5030513;28;20028;-70
2022/09/06 00:46:35;;;;;;;9.15;2.40;;;21.50;99.90;;;;;;5043547;28;20037;-70
2022/09/06 00:49:04;;;;;;;8.95;2.60;;;;;;;;;;5033576;28;20025;-70
2022/09/06 00:51:31;;;;;;;4.32;2.28;;;;;;;;;;5051515;28;20025;-70
2022/09/06 00:53:58;;;;;;;5.55;3.35;;;;;;;;;;5049797;28;20049;-70
2022/09/06 00:56:25;;;;;;;4.32;2.50;;;21.30;99.90;;;;;;5051411;28;20064;-70
2022/09/06 00:58:51;;;;;;;7.40;2.67;;;;;;;;;;5049988;28;20025;-70
2022/09/06 01:01:19;;;;;;;3.22;2.42;;;;;;;;;;5049772;28;20045;-71
2022/09/06 01:03:45;;;;;;;7.93;2.58;;;;;;;;;;5050731;28;20104;-71
2022/09/06 01:06:24;;;;;;;5.22;2.75;;;21.30;99.90;;;;;;5049784;28;20128;-70
2022/09/06 01:09:20;;;;;;;4.60;2.28;;;21.40;99.90;;;;;;5048437;28;21713;-70
2022/09/06 01:12:01;;;;;;;7.47;3.00;;;;;;;;;;5055638;28;20028;-72
2022/09/06 01:14:27;;;;;;;6.03;2.42;;;;;;;;;;5054328;28;20029;-70
2022/09/06 01:17:14;;;;;;;4.88;2.17;;;21.20;99.90;;;;;;5037511;28;20043;-70
2022/09/06 01:20:01;;;;;;;7.32;2.78;;;;;;;;;;5050956;28;20029;-70
2022/09/06 01:22:43;;;;;;;5.40;2.60;;;21.40;99.90;;;;;;5030080;28;20041;-70
2022/09/06 01:25:26;;;;;;;11.13;2.73;;;21.20;99.90;;;;;;5050597;28;20111;-70
2022/09/06 01:27:52;;;;;;;6.75;2.40;;;;;;;;;;5051417;28;20173;-70
2022/09/06 01:30:18;;;;;;;4.25;2.80;;;;;;;;;;5045414;28;20064;-71
2022/09/06 01:32:44;;;;;;;11.10;3.55;;;;;;;;;;5058618;28;20481;-70
2022/09/06 01:35:48;;;;;;;4.80;2.28;;;21.20;99.90;;;;;;5053722;28;20048;-70
2022/09/06 01:38:14;;;;;;;7.13;2.85;;;;;;;;;;5031429;28;20084;-70
2022/09/06 01:40:40;;;;;;;4.78;2.40;;;;;;;;;;5047580;28;20448;-70
2022/09/06 01:43:10;;;;;;;6.05;3.00;;;21.40;99.90;;;;;;5053117;28;20072;-70
2022/09/06 01:46:08;;;;;;;19.35;3.03;;;21.20;99.90;;;;;;5052449;28;20034;-70
2022/09/06 01:48:56;;;;;;;4.65;2.70;;;21.40;99.90;;;;;;5063519;28;20032;-70
2022/09/06 01:51:47;;;;;;;3.53;2.30;;;21.10;99.90;;;;;;5037987;28;20034;-70
2022/09/06 01:54:34;;;;;;;5.82;2.67;;;21.10;99.90;;;;;;5051689;28;20409;-70
2022/09/06 01:57:19;;;;;;;6.38;2.80;;;21.10;99.90;;;;;;5056144;28;20489;-70
2022/09/06 01:59:45;;;;;;;6.47;2.97;;;;;;;;;;5056496;28;20032;-70
2022/09/06 02:02:25;;;;;;;3.58;2.70;;;;;;;;;;5056176;28;20036;-71
2022/09/06 02:05:03;;;;;;;12.38;2.97;;;;;;;;;;5055963;28;20453;-70
2022/09/06 02:07:30;;;;;;;3.00;2.58;;;;;;;;;;5046713;28;20357;-70
2022/09/06 02:10:12;;;;;;;5.82;2.60;;;20.90;99.90;;;;;;5057045;28;20075;-70
2022/09/06 02:12:42;;;;;;;6.07;2.70;;;21.20;99.90;;;;;;5055060;28;20029;-71
2022/09/06 02:15:38;;;;;;;4.70;2.70;;;21.00;99.90;;;;;;5054589;28;20131;-71
2022/09/06 02:18:21;;;;;;;5.30;2.95;;;21.10;99.90;;;;;;5048224;28;20048;-70
2022/09/06 02:20:52;;;;;;;3.42;2.63;;;;;;;;;;5054747;28;20493;-70
2022/09/06 02:23:20;;;;;;;7.38;2.50;;;;;;;;;;5057155;28;20035;-70
2022/09/06 02:25:56;;;;;;;4.97;2.35;;;21.00;99.90;;;;;;5069382;28;20032;-71
2022/09/06 02:28:22;;;;;;;5.68;2.67;;;;;;;;;;5058615;28;20044;-71
2022/09/06 02:30:55;;;;;;;4.15;2.35;;;;;;;;;;5050602;28;20041;-70
2022/09/06 02:33:25;;;;;;;7.00;2.50;;;21.00;99.90;;;;;;5066969;28;20032;-70
2022/09/06 02:35:52;;;;;;;3.65;2.78;;;;;;;;;;5041382;28;20029;-71
2022/09/06 02:38:20;;;;;;;6.53;3.05;;;20.90;99.90;;;;;;5039428;28;20025;-70
2022/09/06 02:40:48;;;;;;;7.70;2.85;;;21.10;99.90;;;;;;5055340;28;20032;-70
2022/09/06 02:43:14;;;;;;;5.07;2.80;;;;;;;;;;5056823;28;20511;-70
2022/09/06 02:45:40;;;;;;;6.05;2.50;;;20.80;99.90;;;;;;5056714;28;20120;-70
2022/09/06 02:48:06;;;;;;;5.45;2.75;;;;;;;;;;5020561;28;20033;-70
2022/09/06 02:50:32;;;;;;;5.32;2.25;;;;;;;;;;5054752;28;20040;-70
2022/09/06 02:53:03;;;;;;;7.72;2.65;;;;;;;;;;5055678;28;20029;-70
2022/09/06 02:55:30;;;;;;;4.47;2.40;;;;;;;;;;5052655;28;20036;-71
2022/09/06 02:57:57;;;;;;;7.75;2.25;;;20.90;99.90;;;;;;5053181;28;20086;-70
2022/09/06 03:00:24;;;;;;;4.63;2.50;;;20.90;99.90;;;;;;5036795;28;20346;-70
2022/09/06 03:02:49;;;;;;;3.95;2.53;;;20.80;99.90;;;;;;5051857;28;20082;-71
2022/09/06 03:05:15;;;;;;;6.10;2.72;;;;;;;;;;5053328;28;20040;-70
2022/09/06 03:07:41;;;;;;;8.57;2.95;;;;;;;;;;5053443;28;20057;-71
2022/09/06 03:10:07;;;;;;;4.72;2.35;;;;;;;;;;5049976;28;20043;-70
2022/09/06 03:12:33;;;;;;;3.53;2.42;;;;;;;;;;5035752;28;20431;-71
2022/09/06 03:14:59;;;;;;;7.28;2.72;;;;;;;;;;5057306;28;20115;-71
2022/09/06 03:17:25;;;;;;;7.50;2.97;;;;;;;;;;5052061;28;20029;-71
2022/09/06 03:19:52;;;;;;;9.10;3.15;;;;;;;;;;5050694;28;20114;-71
2022/09/06 03:22:18;;;;;;;5.45;2.92;;;;;;;;;;5052982;28;20433;-71
2022/09/06 03:24:44;;;;;;;5.85;3.20;;;;;;;;;;5053066;28;20168;-71
2022/09/06 03:27:10;;;;;;;3.90;2.38;;;;;;;;;;5050954;28;20044;-71
2022/09/06 03:29:36;;;;;;;4.97;2.95;;;;;;;;;;5052967;28;20033;-70
2022/09/06 03:32:02;;;;;;;4.78;3.05;;;;;;;;;;5055767;28;20138;-71
2022/09/06 03:34:28;;;;;;;6.35;2.80;;;;;;;;;;5051770;28;20053;-71
2022/09/06 03:36:54;;;;;;;6.72;3.05;;;;;;;;;;5053365;28;20048;-71
2022/09/06 03:39:20;;;;;;;5.35;2.78;;;;;;;;;;5048643;28;20045;-71
2022/09/06 03:41:46;;;;;;;10.15;3.33;;;;;;;;;;5049500;28;20443;-71
2022/09/06 03:44:11;;;;;;;7.50;3.00;;;20.50;99.90;;;;;;5052450;28;20121;-70
2022/09/06 03:46:37;;;;;;;7.40;3.25;;;20.60;99.90;;;;;;5052565;28;20033;-70
2022/09/06 03:49:03;;;;;;;7.38;2.88;;;;;;;;;;5051059;28;20030;-70
2022/09/06 03:51:29;;;;;;;3.65;2.85;;;;;;;;;;5052616;28;20370;-70
2022/09/06 03:53:56;;;;;;;5.63;2.85;;;;;;;;;;5052356;28;20036;-70
2022/09/06 03:56:22;;;;;;;5.72;3.08;;;20.50;99.90;;;;;;5051066;28;20064;-70
2022/09/06 03:58:48;;;;;;;3.10;2.80;;;;;;;;;;5031780;28;20052;-70
2022/09/06 04:01:14;;;;;;;8.23;3.50;;;;;;;;;;5052547;28;20033;-70
2022/09/06 04:03:40;;;;;;;12.52;3.17;;;;;;;;;;5053259;28;20031;-70
2022/09/06 04:06:06;;;;;;;8.88;3.25;;;;;;;;;;5056759;28;20063;-70
2022/09/06 04:08:33;;;;;;;8.60;3.47;;;;;;;;;;5040025;28;20032;-70
2022/09/06 04:10:59;;;;;;;5.78;3.17;;;;;;;;;;5045619;28;20082;-70
2022/09/06 04:13:26;;;;;;;6.63;3.65;;;20.30;99.90;;;;;;5050104;28;20066;-70
2022/09/06 04:15:52;;;;;;;8.07;4.18;;;;;;;;;;5048915;28;20040;-70
2022/09/06 04:18:18;;;;;;;6.28;4.10;;;;;;;;;;5050681;28;20048;-70
2022/09/06 04:20:45;;;;;;;7.93;4.03;;;;;;;;;;5053890;28;20061;-70
2022/09/06 04:23:11;;;;;;;4.80;3.72;;;;;;;;;;5069275;28;20111;-70
2022/09/06 04:25:37;;;;;;;5.20;4.20;;;;;;;;;;5054102;28;20604;-70
2022/09/06 04:28:03;;;;;;;5.53;3.47;;;;;;;;;;5061072;28;20132;-70
2022/09/06 04:30:29;;;;;;;6.45;4.20;;;;;;;;;;5033054;28;20391;-70
2022/09/06 04:32:55;;;;;;;6.60;4.05;;;;;;;;;;5051917;28;20025;-70
2022/09/06 04:35:21;;;;;;;5.75;4.32;;;;;;;;;;5050162;28;20045;-70
2022/09/06 04:37:47;;;;;;;7.32;4.93;;;;;;;;;;5053769;28;20049;-71
2022/09/06 04:40:12;;;;;;;4.18;3.78;;;19.40;99.90;;;;;;5069409;28;20032;-70
2022/09/06 04:42:38;;;;;;;6.38;4.18;;;;;;;;;;5052101;28;20044;-70
2022/09/06 04:45:05;;;;;;;11.07;4.63;;;19.30;99.90;;;;;;5050790;28;20577;-69
2022/09/06 04:47:31;;;;;;;6.03;3.90;;;;;;;;;;5052155;28;20036;-69
2022/09/06 04:49:56;;;;;;;7.20;4.45;;;19.20;99.90;;;;;;5054007;28;20044;-70
2022/09/06 04:52:22;;;;;;;6.93;4.72;;;;;;;;;;5033647;28;20052;-71
2022/09/06 04:54:48;;;;;;;5.30;4.55;;;19.30;99.90;;;;;;5054406;28;20103;-70
2022/09/06 04:57:14;;;;;;;6.55;4.47;;;19.20;99.90;;;;;;5052817;28;20119;-70
2022/09/06 04:59:39;;;;;;;5.57;4.38;;;;;;;;;;5047321;28;20116;-69
2022/09/06 05:02:05;;;;;;;5.28;4.50;;;;;;;;;;5050440;28;20502;-71
2022/09/06 05:04:31;;;;;;;5.35;4.45;;;;;;;;;;5052671;28;20029;-71
2022/09/06 05:07:01;;;;;;;5.55;4.72;;;;;;;;;;5053913;28;20037;-70
2022/09/06 05:09:27;;;;;;;5.32;4.38;;;;;;;;;;5052343;28;20056;-71
2022/09/06 05:11:53;;;;;;;4.70;4.13;;;19.00;99.90;;;;;;5057849;28;20035;-71
2022/09/06 05:14:19;;;;;;;10.57;4.78;;;;;;;;;;5063544;28;20029;-71
2022/09/06 05:16:45;;;;;;;5.53;4.32;;;;;;;;;;5049341;28;20064;-70
2022/09/06 05:19:11;;;;;;;6.78;4.50;;;;;;;;;;5050388;28;20079;-70
2022/09/06 05:21:37;;;;;;;6.18;4.90;;;;;;;;;;5060055;28;20078;-70
2022/09/06 05:24:03;;;;;;;9.25;4.63;;;;;;;;;;5054530;28;20493;-70
2022/09/06 05:26:29;;;;;;;5.95;5.07;;;18.90;99.90;;;;;;5049618;28;20104;-70
2022/09/06 05:28:54;;;;;;;7.30;4.47;;;18.80;99.90;;;;;;5050457;28;20164;-71
2022/09/06 05:31:28;;;;;;;6.60;4.35;;;;;;;;;;5048177;28;20424;-70
2022/09/06 05:33:54;;;;;;;11.88;4.93;;;18.90;99.90;;;;;;5049593;28;20040;-70
2022/09/06 05:36:22;;;;;;;9.18;4.45;;;18.80;99.90;;;;;;5040741;28;20029;-70
2022/09/06 05:38:52;;;;;;;9.82;6.18;;;18.70;99.90;;;;;;5013647;28;20124;-70
2022/09/06 05:41:18;;;;;;;5.65;4.68;;;;;;;;;;5030025;28;20061;-71
2022/09/06 05:43:44;;;;;;;8.65;4.60;;;;;;;;;;5030798;28;20064;-71
2022/09/06 05:46:10;;;;;;;8.45;4.70;;;;;;;;;;5015835;28;20032;-74
2022/09/06 05:48:36;;;;;;;6.57;5.05;;;;;;;;;;5033381;28;20125;-71
2022/09/06 05:51:03;;;;;;;8.18;5.28;;;;;;;;;;5031367;28;20087;-71
2022/09/06 05:53:37;;;;;;;7.22;4.43;;;18.90;99.90;;;;;;5038914;28;20108;-70
2022/09/06 05:56:05;;;;;;;8.38;4.40;;;;;;;;;;5043401;28;20108;-70
2022/09/06 05:58:31;;;;;;;10.23;5.00;;;18.90;99.90;;;;;;5030233;28;20036;-72
2022/09/06 06:01:25;;;;;;;5.40;4.50;;;;;;;;;;5022303;28;20035;-72
2022/09/06 06:03:55;;;;;;;5.50;4.45;;;;;;;;;;5026994;28;20041;-72
2022/09/06 06:06:22;;;;;;;5.57;5.03;;;;;;;;;;5033579;28;20548;-70
2022/09/06 06:08:48;;;;;;;8.65;5.28;;;;;;;;;;5025750;28;20119;-70
2022/09/06 06:11:15;;;;;;;7.18;5.07;;;19.00;99.90;;;;;;5026736;28;20074;-70
2022/09/06 06:13:42;;;;;;;5.90;4.95;;;;;;;;;;5031111;28;20044;-70
2022/09/06 06:16:15;;;;;;;6.00;4.57;;;;;;;;;;5028866;28;20029;-70
2022/09/06 06:18:43;;;;;;;13.93;5.68;;;18.90;99.90;;;;;;5045224;28;20033;-70
2022/09/06 06:21:14;;;;;;;6.85;5.10;;;19.10;99.90;;;;;;5041330;28;20038;-70
2022/09/06 06:23:41;;;;;;;8.13;4.82;;;;;;;;;;5011956;28;20120;-70
2022/09/06 06:26:07;;;;;;;6.88;4.63;;;;;;;;;;5040839;28;20483;-69
2022/09/06 06:28:34;;;;;;;9.27;4.88;;;;;;;;;;5029825;28;20040;-69
2022/09/06 06:31:00;;;;;;;11.98;4.70;;;;;;;;;;5015620;28;20045;-69
2022/09/06 06:33:26;;;;;;;7.28;4.43;;;;;;;;;;5015727;28;20060;-70
2022/09/06 06:36:03;;;;;;;9.27;5.22;;;;;;;;;;5031491;28;20081;-70
2022/09/06 06:38:37;;;;;;;8.80;4.70;;;19.50;99.90;;;;;;5035721;28;20033;-70
2022/09/06 06:41:03;;;;;;;9.75;4.88;;;;;;;;;;5034390;28;20091;-72
2022/09/06 06:43:35;;;;;;;6.07;5.20;;;;;;;;;;5038721;28;20102;-70
2022/09/06 06:46:02;;;;;;;5.60;4.97;;;;;;;;;;5033765;28;20026;-70
2022/09/06 06:48:27;;;;;;;7.82;4.72;;;19.80;99.90;;;;;;5032464;28;20041;-70
2022/09/06 06:50:54;;;;;;;7.90;4.45;;;;;;;;;;5015109;28;20043;-70
2022/09/06 06:53:19;;;;;;;7.72;5.22;;;19.80;99.90;;;;;;5043426;28;20026;-70
2022/09/06 06:55:49;;;;;;;6.13;4.82;;;;;;;;;;5030182;28;20061;-70
2022/09/06 06:58:16;;;;;;;5.82;5.22;;;;;;;;;;5015611;28;20030;-70
2022/09/06 07:00:42;;;;;;;12.38;9.18;;;;;;;;;;5009136;28;20065;-69
2022/09/06 07:03:09;;;;;;;22.73;14.93;;;;;;;;;;5028261;28;20026;-69
2022/09/06 07:05:34;;;;;;;15.23;9.60;;;19.60;99.90;;;;;;5034186;28;20496;-69
2022/09/06 07:08:00;;;;;;;9.40;5.50;;;19.60;99.90;;;;;;5038514;28;20041;-71
2022/09/06 07:10:26;;;;;;;7.07;6.10;;;;;;;;;;5029655;28;20034;-72
2022/09/06 07:12:52;;;;;;;11.50;5.45;;;19.80;99.90;;;;;;5037987;28;20476;-70
2022/09/06 07:15:18;;;;;;;5.68;4.95;;;19.90;99.90;;;;;;5037117;28;20068;-70
2022/09/06 07:17:44;;;;;;;10.80;5.85;;;;;;;;;;5038693;28;20474;-70
2022/09/06 07:20:10;;;;;;;7.78;5.53;;;;;;;;;;5032437;28;20156;-70
2022/09/06 07:22:37;;;;;;;7.85;5.40;;;;;;;;;;5032663;28;20045;-70
2022/09/06 07:25:06;;;;;;;7.00;5.13;;;;;;;;;;5015999;28;20120;-71
2022/09/06 07:27:32;;;;;;;5.97;5.38;;;19.90;99.90;;;;;;5032658;28;20025;-70
2022/09/06 07:29:58;;;;;;;9.23;5.45;;;19.90;99.90;;;;;;5023575;28;20045;-68
2022/09/06 07:32:23;;;;;;;12.40;8.43;;;20.10;99.90;;;;;;5031821;28;20030;-67
2022/09/06 07:34:49;;;;;;;12.43;6.35;;;;;;;;;;5039356;28;20060;-70
2022/09/06 07:37:17;;;;;;;8.70;5.95;;;;;;;;;;5052977;28;20041;-72
2022/09/06 07:39:43;;;;;;;9.38;5.80;;;;;;;;;;5053914;28;20110;-70
2022/09/06 07:42:08;;;;;;;6.22;5.63;;;21.40;99.90;;;;;;5050458;28;20073;-70
2022/09/06 07:44:34;;;;;;;8.85;6.03;;;;;;;;;;5025611;28;20132;-70
2022/09/06 07:47:05;;;;;;;10.15;5.93;;;;;;;;;;5048966;28;20395;-70
2022/09/06 07:49:32;;;;;;;7.35;5.72;;;;;;;;;;5053753;28;20033;-70
2022/09/06 07:51:58;;;;;;;7.70;5.68;;;;;;;;;;5031831;28;20048;-71
2022/09/06 07:54:23;;;;;;;7.40;5.85;;;22.20;99.90;;;;;;5032180;28;20084;-70
2022/09/06 07:56:49;;;;;;;9.05;4.95;;;;;;;;;;5034875;28;20037;-70
2022/09/06 07:59:15;;;;;;;7.53;5.47;;;;;;;;;;5052153;28;20025;-70
2022/09/06 08:01:42;;;;;;;9.43;5.50;;;;;;;;;;5050726;28;20033;-70
2022/09/06 08:04:12;;;;;;;7.05;5.13;;;22.20;99.90;;;;;;5060104;28;20041;-70
2022/09/06 08:06:39;;;;;;;9.80;5.57;;;;;;;;;;5057077;28;20126;-70
2022/09/06 08:09:07;;;;;;;7.65;5.50;;;22.00;99.90;;;;;;5035351;28;20037;-70
2022/09/06 08:11:34;;;;;;;8.07;5.43;;;22.00;99.90;;;;;;5049811;28;20097;-70
2022/09/06 08:14:03;;;;;;;11.13;5.90;;;21.90;99.90;;;;;;5052678;28;20033;-70
2022/09/06 08:16:30;;;;;;;9.80;5.20;;;;;;;;;;5045726;28;20033;-73
2022/09/06 08:18:57;;;;;;;10.52;6.07;;;;;;;;;;5055028;28;20062;-69
2022/09/06 08:21:24;;;;;;;11.27;6.72;;;;;;;;;;5060127;28;20048;-70
2022/09/06 08:23:51;;;;;;;8.80;6.88;;;;;;;;;;5047741;28;20094;-70
2022/09/06 08:26:17;;;;;;;8.55;5.60;;;;;;;;;;5045537;28;20465;-71
2022/09/06 08:28:43;;;;;;;8.57;5.43;;;22.20;99.90;;;;;;5054551;28;20040;-70
2022/09/06 08:31:11;;;;;;;8.85;5.53;;;22.00;99.90;;;;;;5042987;28;20037;-71
2022/09/06 08:33:38;;;;;;;7.28;5.45;;;;;;;;;;5042734;28;20083;-70
2022/09/06 08:36:05;;;;;;;21.35;14.43;;;;;;;;;;5023785;28;20053;-69
2022/09/06 08:38:31;;;;;;;13.77;8.70;;;;;;;;;;5036009;28;20037;-69
2022/09/06 08:41:16;;;;;;;12.65;7.90;;;;;;;;;;5044599;28;20037;-70
2022/09/06 08:44:08;;;;;;;12.18;5.90;;;;;;;;;;5029502;28;20045;-70
2022/09/06 08:46:37;;;;;;;;;;;22.40;99.90;;;;;;5037776;28;20053;-71
2022/09/06 08:49:03;;;;;;;8.43;5.15;;;;;;;;;;5027513;28;19920;-70
2022/09/06 08:51:36;;;;;;;6.47;5.45;;;;;;;;;;5040963;28;20045;-70
2022/09/06 08:54:11;;;;;;;16.52;12.32;;;;;;;;;;5038455;28;20429;-70
2022/09/06 08:56:41;;;;;;;10.60;7.50;;;;;;;;;;5025055;28;20043;-70
2022/09/06 08:59:12;;;;;;;8.68;5.38;;;22.90;99.90;;;;;;5037244;28;20551;-70
2022/09/06 09:01:56;;;;;;;8.13;6.13;;;23.30;99.90;;;;;;5030381;28;20042;-70
2022/09/06 09:04:24;;;;;;;5.97;5.38;;;;;;;;;;5024688;28;20041;-70
2022/09/06 09:06:52;;;;;;;6.40;5.78;;;;;;;;;;5018772;28;20032;-70
2022/09/06 09:09:17;;;;;;;8.75;5.82;;;24.10;99.90;;;;;;5031371;28;20108;-70
2022/09/06 09:11:46;;;;;;;8.73;5.38;;;;;;;;;;5024754;28;20167;-72
2022/09/06 09:14:16;;;;;;;7.57;5.38;;;;;;;;;;5026033;28;20033;-70
2022/09/06 09:16:41;;;;;;;6.03;5.22;;;26.70;99.90;;;;;;5039133;28;20276;-70
2022/09/06 09:19:08;;;;;;;10.82;4.80;;;27.60;99.90;;;;;;5030780;28;20033;-70
2022/09/06 09:21:37;;;;;;;7.68;4.68;;;28.10;99.90;;;;;;5019491;28;20117;-70
2022/09/06 09:24:11;;;;;;;8.63;4.88;;;28.90;99.00;;;;;;5044542;28;20447;-71
2022/09/06 09:26:46;;;;;;;9.55;4.10;;;29.20;99.90;;;;;;5032619;28;20108;-69
2022/09/06 09:29:13;;;;;;;6.25;4.78;;;;;;;;;;5041736;28;20092;-70
2022/09/06 09:31:46;;;;;;;9.02;4.53;;;30.10;99.90;;;;;;5026128;28;20410;-69
2022/09/06 09:34:25;;;;;;;10.68;4.13;;;30.40;96.30;;;;;;5025842;28;20045;-70
2022/09/06 09:37:10;;;;;;;6.55;4.50;;;;;;;;;;5025433;28;20025;-69
2022/09/06 09:39:37;;;;;;;7.30;4.38;;;;;;;;;;5039546;28;20053;-69
2022/09/06 09:42:03;;;;;;;4.40;4.00;;;;;;;;;;5057198;28;20025;-69
2022/09/06 09:44:29;;;;;;;6.38;4.32;;;;;;;;;;5053128;28;20045;-73
2022/09/06 09:46:55;;;;;;;8.07;4.32;;;;;;;;;;5040898;28;20136;-69
2022/09/06 09:49:23;;;;;;;7.68;3.70;;;;;;;;;;5045679;28;20512;-69
2022/09/06 09:52:11;;;;;;;5.88;3.85;;;31.40;89.50;;;;;;5049303;28;20034;-69
2022/09/06 09:54:39;;;;;;;10.52;7.13;;;;;;;;;;5045963;28;20082;-69
2022/09/06 09:57:09;;;;;;;5.10;3.90;;;;;;;;;;5048165;28;20075;-69
2022/09/06 09:59:46;;;;;;;9.50;3.33;;;;;;;;;;5050110;28;20025;-69
2022/09/06 10:02:26;;;;;;;8.30;3.03;;;33.00;83.30;;;;;;5042572;28;20481;-69
2022/09/06 10:04:53;;;;;;;6.90;3.15;;;;;;;;;;5051822;28;20037;-69
2022/09/06 10:07:21;;;;;;;5.25;2.78;;;33.60;92.60;;;;;;5032058;28;20017;-68
2022/09/06 10:09:48;;;;;;;3.78;3.22;;;;;;;;;;5047026;28;20021;-67
2022/09/06 10:12:29;;;;;;;5.13;3.00;;;33.60;83.80;;;;;;5054453;28;20037;-67
2022/09/06 10:14:55;;;;;;;3.97;2.45;;;33.50;91.50;;;;;;5036708;28;20036;-67
2022/09/06 10:17:37;;;;;;;7.90;3.65;;;;;;;;;;5038921;28;20107;-68
2022/09/06 10:20:13;;;;;;;5.97;2.40;;;34.40;79.50;;;;;;5051928;28;20090;-70
2022/09/06 10:22:55;;;;;;;6.00;2.22;;;;;;;;;;5046028;28;20032;-68
2022/09/06 10:25:32;;;;;;;5.03;2.28;;;;;;;;;;5055057;28;20083;-68
2022/09/06 10:27:58;;;;;;;2.85;2.00;;;;;;;;;;5049555;28;20437;-67
2022/09/06 10:30:24;;;;;;;3.78;2.45;;;34.70;89.70;;;;;;5033061;28;20085;-68
2022/09/06 10:33:08;;;;;;;3.22;2.40;;;34.90;78.80;;;;;;5050502;28;20066;-67
2022/09/06 10:35:36;;;;;;;5.60;2.78;;;;;;;;;;5038417;28;20114;-67
2022/09/06 10:38:37;;;;;;;4.97;2.60;;;34.60;76.90;;;;;;5047714;28;20029;-67
2022/09/06 10:41:21;;;;;;;3.75;2.45;;;35.00;73.20;;;;;;5028752;28;20118;-67
2022/09/06 10:43:56;;;;;;;4.93;2.70;;;35.00;73.30;;;;;;5025887;28;20037;-68
2022/09/06 10:46:25;;;;;;;6.00;2.40;;;;;;;;;;5032930;28;20362;-65
2022/09/06 10:48:52;;;;;;;3.33;2.60;;;35.30;87.80;;;;;;5030498;28;20030;-66
2022/09/06 10:51:39;;;;;;;5.10;3.33;;;35.50;72.70;;;;;;5031184;28;20077;-68
2022/09/06 10:54:09;;;;;;;4.63;2.88;;;;;;;;;;5029678;28;20124;-68
2022/09/06 10:56:46;;;;;;;3.83;2.78;;;35.20;76.60;;;;;;5029856;28;20040;-68
2022/09/06 10:59:21;;;;;;;5.95;3.17;;;;;;;;;;5032003;28;20493;-68
2022/09/06 11:01:49;;;;;;;6.22;3.15;;;35.50;72.00;;;;;;5032320;28;20037;-69
2022/09/06 11:04:28;;;;;;;6.47;2.95;;;35.20;75.90;;;;;;5033865;28;20064;-68
2022/09/06 11:06:59;;;;;;;5.55;2.33;;;35.60;76.70;;;;;;5014854;28;20037;-68
2022/09/06 11:09:41;;;;;;;5.55;2.60;;;35.30;77.30;;;;;;5041603;28;20396;-68
2022/09/06 11:12:13;;;;;;;4.32;3.00;;;;;;;;;;5045461;28;20103;-69
2022/09/06 11:14:39;;;;;;;;;;;35.20;78.70;;;;;;5031929;28;20034;-68
2022/09/06 11:17:07;;;;;;;5.50;3.10;;;;;;;;;;5031633;28;19948;-68
2022/09/06 11:19:54;;;;;;;3.35;3.03;;;;;;;;;;5032756;28;20033;-68
2022/09/06 11:22:37;;;;;;;2.92;2.53;;;;;;;;;;5027188;28;20079;-68
2022/09/06 11:25:06;;;;;;;4.22;2.70;;;;;;;;;;5032467;28;20160;-68
2022/09/06 11:27:42;;;;;;;4.82;2.75;;;32.70;80.40;;;;;;5032136;28;20060;-69
2022/09/06 11:30:14;;;;;;;4.25;2.40;;;32.70;82.20;;;;;;5027092;28;20041;-68
2022/09/06 11:32:44;;;;;;;4.15;1.90;;;;;;;;;;5033074;28;20025;-71
2022/09/06 11:35:20;;;;;;;4.03;2.80;;;;;;;;;;5027354;28;20056;-68
2022/09/06 11:37:50;;;;;;;9.35;2.53;;;32.10;83.00;;;;;;5050846;28;20033;-68
2022/09/06 11:40:25;;;;;;;2.20;2.00;;;32.00;83.30;;;;;;5033434;28;20051;-69
2022/09/06 11:42:51;;;;;;;4.03;1.90;;;;;;;;;;5019575;28;20048;-68
2022/09/06 11:45:38;;;;;;;2.45;1.85;;;;;;;;;;5042319;28;20087;-69
2022/09/06 11:48:22;;;;;;;4.30;1.80;;;31.80;79.10;;;;;;5031758;28;20079;-68
2022/09/06 11:50:59;;;;;;;3.33;1.42;;;;;;;;;;5018047;28;20446;-68
2022/09/06 11:53:27;;;;;;;7.05;2.00;;;;;;;;;;5033128;28;20026;-69
2022/09/06 11:55:59;;;;;;;5.13;1.88;;;31.90;78.70;;;;;;5045559;28;20173;-68
2022/09/06 11:58:28;;;;;;;2.42;1.67;;;;;;;;;;5033726;28;20029;-68
2022/09/06 12:01:12;;;;;;;6.25;1.50;;;31.70;78.30;;;;;;5037787;28;20033;-68
2022/09/06 12:03:47;;;;;;;6.85;1.55;;;;;;;;;;5037831;28;20045;-68
2022/09/06 12:06:19;;;;;;;3.50;1.38;;;31.50;78.10;;;;;;5039851;28;20033;-68
2022/09/06 12:08:51;;;;;;;3.05;1.73;;;;;;;;;;5031532;28;20033;-68
2022/09/06 12:11:42;;;;;;;3.00;1.17;;;31.60;77.80;;;;;;5033095;28;20033;-68
2022/09/06 12:14:28;;;;;;;2.00;1.50;;;31.80;77.10;;;;;;5032585;28;20091;-67
2022/09/06 12:16:59;;;;;;;3.05;1.10;;;31.70;76.80;;;;;;5031614;28;20036;-68
2022/09/06 12:19:39;;;;;;;3.30;1.75;;;;;;;;;;5033072;28;20034;-68
2022/09/06 12:22:23;;;;;;;5.00;1.83;;;;;;;;;;5032487;28;20033;-68
2022/09/06 12:24:49;;;;;;;1.65;1.55;;;;;;;;;;5031871;28;20391;-68
2022/09/06 12:27:17;;;;;;;3.15;1.50;;;31.80;79.60;;;;;;5043298;28;20037;-68
2022/09/06 12:29:57;;;;;;;4.72;1.30;;;31.90;81.10;;;;;;5037629;28;20757;-68
2022/09/06 12:32:28;;;;;;;4.82;1.60;;;;;;;;;;5032778;28;20037;-68
2022/09/06 12:34:55;;;;;;;8.23;1.50;;;31.80;80.60;;;;;;5016247;28;20140;-68
2022/09/06 12:37:48;;;;;;;3.63;1.90;;;;;;;;;;5030034;28;20024;-68
2022/09/06 12:40:18;;;;;;;4.50;1.83;;;;;;;;;;5030815;28;20033;-68
2022/09/06 12:42:46;;;;;;;3.03;1.70;;;;;;;;;;5022303;28;20071;-68
2022/09/06 12:45:12;;;;;;;3.55;2.30;;;32.20;90.60;;;;;;5029748;28;20052;-67
2022/09/06 12:47:39;;;;;;;4.53;2.13;;;;;;;;;;5021842;28;20037;-67
2022/09/06 12:50:17;;;;;;;3.13;2.03;;;;;;;;;;5030366;28;20060;-68
2022/09/06 12:52:44;;;;;;;4.15;2.20;;;;;;;;;;5030178;28;20041;-68
2022/09/06 12:55:40;;;;;;;7.72;1.90;;;;;;;;;;5031697;28;20034;-67
2022/09/06 12:58:08;;;;;;;5.30;2.42;;;;;;;;;;5015426;28;20492;-68
2022/09/06 13:00:47;;;;;;;3.03;2.30;;;;;;;;;;5019382;28;20048;-69
2022/09/06 13:03:29;;;;;;;3.80;2.00;;;;;;;;;;5043429;28;20052;-68
2022/09/06 13:05:56;;;;;;;4.65;1.88;;;;;;;;;;5031515;28;20068;-69
2022/09/06 13:08:28;;;;;;;3.10;1.67;;;;;;;;;;5036849;28;20548;-69
2022/09/06 13:10:54;;;;;;;3.08;1.55;;;30.70;93.20;;;;;;5014064;28;20025;-68
2022/09/06 13:13:23;;;;;;;5.85;1.20;;;31.10;84.70;;;;;;5011890;28;20519;-70
2022/09/06 13:15:49;;;;;;;4.22;1.00;;;31.30;92.50;;;;;;5018376;28;20030;-68
2022/09/06 13:18:31;;;;;;;4.68;1.40;;;31.40;79.30;;;;;;5031886;28;20057;-68
2022/09/06 13:21:02;;;;;;;2.97;1.52;;;;;;;;;;5023805;28;20088;-68
2022/09/06 13:23:38;;;;;;;6.43;1.52;;;31.20;77.90;;;;;;5012205;28;20041;-69
2022/09/06 13:26:04;;;;;;;2.17;1.33;;;;;;;;;;5026981;28;20562;-67
2022/09/06 13:28:32;;;;;;;6.80;1.50;;;31.80;82.20;;;;;;5013540;28;20112;-68
2022/09/06 13:31:03;;;;;;;4.13;1.17;;;31.80;82.60;;;;;;5021699;28;20056;-69
2022/09/06 13:33:29;;;;;;;5.20;1.80;;;;;;;;;;5020982;28;20022;-69
2022/09/06 13:36:30;;;;;;;6.15;1.48;;;32.10;82.80;;;;;;5017696;28;20077;-71
2022/09/06 13:38:58;;;;;;;2.17;0.70;;;32.00;91.90;;;;;;4997328;28;20128;-68
2022/09/06 13:41:24;;;;;;;3.20;0.98;;;;;;;;;;5031030;28;20029;-68
2022/09/06 13:44:03;;;;;;;4.57;1.10;;;;;;;;;;5028008;28;20056;-68
2022/09/06 13:46:29;;;;;;;4.22;1.65;;;32.30;91.20;;;;;;5018082;28;20029;-68
2022/09/06 13:48:55;;;;;;;3.50;1.00;;;32.00;91.00;;;;;;5027068;28;20041;-68
2022/09/06 13:51:22;;;;;;;4.68;1.00;;;;;;;;;;5030697;28;20069;-68
2022/09/06 13:53:48;;;;;;;2.05;1.10;;;31.20;78.00;;;;;;5013289;28;20072;-68
2022/09/06 13:56:15;;;;;;;3.17;1.27;;;;;;;;;;5005361;28;20041;-68
2022/09/06 13:58:41;;;;;;;2.88;0.95;;;;;;;;;;5026583;28;20022;-68
2022/09/06 14:01:09;;;;;;;5.38;1.55;;;;;;;;;;5030282;28;20099;-68
2022/09/06 14:03:36;;;;;;;4.25;0.90;;;;;;;;;;5029829;28;20029;-65
2022/09/06 14:06:02;;;;;;;5.13;0.80;;;;;;;;;;5030127;28;20108;-66
2022/09/06 14:08:29;;;;;;;2.38;0.80;;;;;;;;;;5027850;28;20069;-71
2022/09/06 14:10:54;;;;;;;2.35;1.13;;;31.20;84.70;;;;;;5026456;28;20052;-72
2022/09/06 14:13:21;;;;;;;2.92;0.75;;;;;;;;;;5029319;28;20474;-71